sensor_id;sensor_type;location;lat;lon;timestamp;P1;durP1;ratioP1;P2;durP2;ratioP2
31526;SDS011;18136;42.236;-73.040;2022-08-01T00:01:07;1.63;;;1.25;;
31526;SDS011;18136;42.236;-73.040;2022-08-01T00:03:33;1.42;;;1.33;;
31526;SDS011;18136;42.236;-73.040;2022-08-01T00:05:59;1.83;;;1.40;;
31526;SDS011;18136;42.236;-73.040;2022-08-01T00:08:28;2.33;;;1.48;;
31526;SDS011;18136;42.236;-73.040;2022-08-01T00:10:54;1.98;;;1.40;;
31526;SDS011;18136;42.236;-73.040;2022-08-01T00:13:20;1.73;;;1.30;;
31526;SDS011;18136;42.236;-73.040;2022-08-01T00:15:46;4.07;;;1.38;;
31526;SDS011;18136;42.236;-73.040;2022-08-01T00:18:12;2.63;;;1.50;;
31526;SDS011;18136;42.236;-73.040;2022-08-01T00:20:38;4.75;;;1.88;;
31526;SDS011;18136;42.236;-73.040;2022-08-01T00:23:05;1.83;;;1.20;;
31526;SDS011;18136;42.236;-73.040;2022-08-01T00:25:31;3.60;;;1.52;;
31526;SDS011;18136;42.236;-73.040;2022-08-01T00:27:57;2.17;;;1.40;;
31526;SDS011;18136;42.236;-73.040;2022-08-01T00:30:23;3.25;;;1.60;;
31526;SDS011;18136;42.236;-73.040;2022-08-01T00:32:49;2.30;;;1.30;;
31526;SDS011;18136;42.236;-73.040;2022-08-01T00:35:15;2.08;;;1.55;;
31526;SDS011;18136;42.236;-73.040;2022-08-01T00:37:44;3.67;;;1.30;;
31526;SDS011;18136;42.236;-73.040;2022-08-01T00:40:10;3.15;;;1.45;;
31526;SDS011;18136;42.236;-73.040;2022-08-01T00:42:37;2.88;;;1.20;;
31526;SDS011;18136;42.236;-73.040;2022-08-01T00:45:03;2.08;;;1.20;;
31526;SDS011;18136;42.236;-73.040;2022-08-01T00:47:30;1.58;;;1.48;;
31526;SDS011;18136;42.236;-73.040;2022-08-01T00:49:56;3.45;;;1.40;;
31526;SDS011;18136;42.236;-73.040;2022-08-01T00:52:28;2.95;;;1.30;;
31526;SDS011;18136;42.236;-73.040;2022-08-01T00:54:54;1.98;;;1.40;;
31526;SDS011;18136;42.236;-73.040;2022-08-01T00:57:20;1.98;;;1.48;;
31526;SDS011;18136;42.236;-73.040;2022-08-01T00:59:48;4.63;;;1.67;;
31526;SDS011;18136;42.236;-73.040;2022-08-01T01:02:15;3.50;;;1.52;;
31526;SDS011;18136;42.236;-73.040;2022-08-01T01:04:43;1.63;;;1.50;;
31526;SDS011;18136;42.236;-73.040;2022-08-01T01:07:10;1.63;;;1.52;;
31526;SDS011;18136;42.236;-73.040;2022-08-01T01:09:48;3.10;;;1.40;;
31526;SDS011;18136;42.236;-73.040;2022-08-01T01:12:44;1.50;;;1.38;;
31526;SDS011;18136;42.236;-73.040;2022-08-01T01:15:46;2.08;;;1.38;;
31526;SDS011;18136;42.236;-73.040;2022-08-01T01:18:20;4.70;;;1.77;;
31526;SDS011;18136;42.236;-73.040;2022-08-01T01:27:01;2.22;;;1.30;;
31526;SDS011;18136;42.236;-73.040;2022-08-01T01:29:49;1.60;;;1.50;;
31526;SDS011;18136;42.236;-73.040;2022-08-01T01:32:50;12.13;;;1.65;;
31526;SDS011;18136;42.236;-73.040;2022-08-01T01:35:24;1.98;;;1.65;;
31526;SDS011;18136;42.236;-73.040;2022-08-01T01:38:07;3.60;;;1.55;;
31526;SDS011;18136;42.236;-73.040;2022-08-01T01:40:41;3.50;;;1.60;;
31526;SDS011;18136;42.236;-73.040;2022-08-01T01:43:09;1.60;;;1.50;;
31526;SDS011;18136;42.236;-73.040;2022-08-01T01:45:37;1.65;;;1.50;;
31526;SDS011;18136;42.236;-73.040;2022-08-01T01:48:07;1.63;;;1.42;;
31526;SDS011;18136;42.236;-73.040;2022-08-01T01:50:35;3.33;;;1.50;;
31526;SDS011;18136;42.236;-73.040;2022-08-01T01:53:02;3.03;;;1.33;;
31526;SDS011;18136;42.236;-73.040;2022-08-01T01:55:31;1.30;;;1.20;;
31526;SDS011;18136;42.236;-73.040;2022-08-01T01:58:01;1.95;;;1.75;;
31526;SDS011;18136;42.236;-73.040;2022-08-01T02:00:27;1.50;;;1.40;;
31526;SDS011;18136;42.236;-73.040;2022-08-01T02:02:56;1.58;;;1.48;;
31526;SDS011;18136;42.236;-73.040;2022-08-01T02:05:25;1.73;;;1.63;;
31526;SDS011;18136;42.236;-73.040;2022-08-01T02:07:53;3.13;;;1.45;;
31526;SDS011;18136;42.236;-73.040;2022-08-01T02:10:20;1.67;;;1.58;;
31526;SDS011;18136;42.236;-73.040;2022-08-01T02:12:47;3.20;;;2.17;;
31526;SDS011;18136;42.236;-73.040;2022-08-01T02:15:15;2.15;;;1.60;;
31526;SDS011;18136;42.236;-73.040;2022-08-01T02:17:43;2.50;;;1.60;;
31526;SDS011;18136;42.236;-73.040;2022-08-01T02:20:13;2.20;;;1.92;;
31526;SDS011;18136;42.236;-73.040;2022-08-01T02:22:46;3.22;;;1.83;;
31526;SDS011;18136;42.236;-73.040;2022-08-01T02:27:50;3.22;;;2.13;;
31526;SDS011;18136;42.236;-73.040;2022-08-01T02:30:17;2.42;;;1.58;;
31526;SDS011;18136;42.236;-73.040;2022-08-01T02:32:46;3.10;;;1.98;;
31526;SDS011;18136;42.236;-73.040;2022-08-01T02:35:29;6.18;;;2.08;;
31526;SDS011;18136;42.236;-73.040;2022-08-01T02:37:57;2.05;;;1.85;;
31526;SDS011;18136;42.236;-73.040;2022-08-01T02:40:27;5.25;;;2.00;;
31526;SDS011;18136;42.236;-73.040;2022-08-01T02:42:57;1.60;;;1.50;;
31526;SDS011;18136;42.236;-73.040;2022-08-01T02:45:27;2.10;;;1.90;;
31526;SDS011;18136;42.236;-73.040;2022-08-01T02:47:57;2.03;;;1.83;;
31526;SDS011;18136;42.236;-73.040;2022-08-01T02:50:26;2.53;;;2.00;;
31526;SDS011;18136;42.236;-73.040;2022-08-01T02:52:54;2.08;;;1.88;;
31526;SDS011;18136;42.236;-73.040;2022-08-01T02:55:22;1.80;;;1.70;;
31526;SDS011;18136;42.236;-73.040;2022-08-01T02:57:49;2.05;;;1.67;;
31526;SDS011;18136;42.236;-73.040;2022-08-01T03:00:19;3.67;;;2.08;;
31526;SDS011;18136;42.236;-73.040;2022-08-01T03:02:45;2.72;;;1.70;;
31526;SDS011;18136;42.236;-73.040;2022-08-01T03:05:13;1.98;;;1.70;;
31526;SDS011;18136;42.236;-73.040;2022-08-01T03:07:40;3.55;;;1.90;;
31526;SDS011;18136;42.236;-73.040;2022-08-01T03:10:07;4.60;;;1.95;;
31526;SDS011;18136;42.236;-73.040;2022-08-01T03:12:34;3.88;;;2.25;;
31526;SDS011;18136;42.236;-73.040;2022-08-01T03:15:03;2.85;;;2.00;;
31526;SDS011;18136;42.236;-73.040;2022-08-01T03:17:31;2.10;;;1.90;;
31526;SDS011;18136;42.236;-73.040;2022-08-01T03:19:59;5.25;;;2.20;;
31526;SDS011;18136;42.236;-73.040;2022-08-01T03:22:29;3.20;;;1.90;;
31526;SDS011;18136;42.236;-73.040;2022-08-01T03:24:57;3.45;;;1.70;;
31526;SDS011;18136;42.236;-73.040;2022-08-01T03:27:24;5.88;;;2.17;;
31526;SDS011;18136;42.236;-73.040;2022-08-01T03:29:51;3.22;;;2.03;;
31526;SDS011;18136;42.236;-73.040;2022-08-01T03:32:20;6.35;;;2.00;;
31526;SDS011;18136;42.236;-73.040;2022-08-01T03:34:47;2.22;;;2.03;;
31526;SDS011;18136;42.236;-73.040;2022-08-01T03:37:23;2.58;;;2.38;;
31526;SDS011;18136;42.236;-73.040;2022-08-01T03:39:58;3.05;;;2.30;;
31526;SDS011;18136;42.236;-73.040;2022-08-01T03:42:34;2.42;;;2.22;;
31526;SDS011;18136;42.236;-73.040;2022-08-01T03:45:04;2.33;;;2.10;;
31526;SDS011;18136;42.236;-73.040;2022-08-01T03:47:37;4.82;;;1.90;;
31526;SDS011;18136;42.236;-73.040;2022-08-01T03:50:08;3.90;;;2.20;;
31526;SDS011;18136;42.236;-73.040;2022-08-01T03:52:38;2.08;;;1.92;;
31526;SDS011;18136;42.236;-73.040;2022-08-01T03:55:07;2.88;;;2.28;;
31526;SDS011;18136;42.236;-73.040;2022-08-01T03:57:34;3.55;;;2.10;;
31526;SDS011;18136;42.236;-73.040;2022-08-01T04:00:00;2.42;;;2.22;;
31526;SDS011;18136;42.236;-73.040;2022-08-01T04:02:31;3.85;;;2.00;;
31526;SDS011;18136;42.236;-73.040;2022-08-01T04:04:58;2.22;;;2.00;;
31526;SDS011;18136;42.236;-73.040;2022-08-01T04:07:26;2.28;;;2.08;;
31526;SDS011;18136;42.236;-73.040;2022-08-01T04:09:56;2.70;;;2.05;;
31526;SDS011;18136;42.236;-73.040;2022-08-01T04:12:23;2.72;;;2.42;;
31526;SDS011;18136;42.236;-73.040;2022-08-01T04:14:49;3.35;;;2.25;;
31526;SDS011;18136;42.236;-73.040;2022-08-01T04:17:16;3.58;;;2.25;;
31526;SDS011;18136;42.236;-73.040;2022-08-01T04:19:42;2.53;;;2.20;;
31526;SDS011;18136;42.236;-73.040;2022-08-01T04:22:10;2.92;;;2.17;;
31526;SDS011;18136;42.236;-73.040;2022-08-01T04:27:42;3.17;;;2.60;;
31526;SDS011;18136;42.236;-73.040;2022-08-01T04:30:12;2.28;;;2.00;;
31526;SDS011;18136;42.236;-73.040;2022-08-01T04:32:39;2.17;;;1.98;;
31526;SDS011;18136;42.236;-73.040;2022-08-01T04:35:11;13.60;;;3.20;;
31526;SDS011;18136;42.236;-73.040;2022-08-01T04:37:42;3.45;;;2.13;;
31526;SDS011;18136;42.236;-73.040;2022-08-01T04:40:09;4.20;;;2.05;;
31526;SDS011;18136;42.236;-73.040;2022-08-01T04:42:37;3.35;;;2.38;;
31526;SDS011;18136;42.236;-73.040;2022-08-01T04:45:03;3.33;;;2.25;;
31526;SDS011;18136;42.236;-73.040;2022-08-01T04:47:30;3.50;;;2.58;;
31526;SDS011;18136;42.236;-73.040;2022-08-01T04:49:57;5.15;;;2.53;;
31526;SDS011;18136;42.236;-73.040;2022-08-01T04:52:31;2.85;;;2.05;;
31526;SDS011;18136;42.236;-73.040;2022-08-01T04:55:00;2.05;;;1.90;;
31526;SDS011;18136;42.236;-73.040;2022-08-01T04:57:26;2.50;;;2.30;;
31526;SDS011;18136;42.236;-73.040;2022-08-01T04:59:52;8.10;;;2.65;;
31526;SDS011;18136;42.236;-73.040;2022-08-01T05:02:22;4.13;;;2.22;;
31526;SDS011;18136;42.236;-73.040;2022-08-01T05:04:48;4.00;;;2.58;;
31526;SDS011;18136;42.236;-73.040;2022-08-01T05:07:14;2.25;;;1.67;;
31526;SDS011;18136;42.236;-73.040;2022-08-01T05:09:41;3.28;;;2.00;;
31526;SDS011;18136;42.236;-73.040;2022-08-01T05:12:07;2.78;;;2.20;;
31526;SDS011;18136;42.236;-73.040;2022-08-01T05:14:34;11.82;;;2.30;;
31526;SDS011;18136;42.236;-73.040;2022-08-01T05:17:03;3.00;;;1.90;;
31526;SDS011;18136;42.236;-73.040;2022-08-01T05:19:31;3.13;;;2.08;;
31526;SDS011;18136;42.236;-73.040;2022-08-01T05:22:02;3.53;;;2.85;;
31526;SDS011;18136;42.236;-73.040;2022-08-01T05:24:30;3.70;;;2.35;;
31526;SDS011;18136;42.236;-73.040;2022-08-01T05:26:57;3.78;;;2.17;;
31526;SDS011;18136;42.236;-73.040;2022-08-01T05:29:30;2.22;;;2.00;;
31526;SDS011;18136;42.236;-73.040;2022-08-01T05:31:57;2.33;;;2.13;;
31526;SDS011;18136;42.236;-73.040;2022-08-01T05:34:24;2.88;;;2.00;;
31526;SDS011;18136;42.236;-73.040;2022-08-01T05:36:51;1.80;;;1.70;;
31526;SDS011;18136;42.236;-73.040;2022-08-01T05:39:17;1.80;;;1.70;;
31526;SDS011;18136;42.236;-73.040;2022-08-01T05:41:43;10.82;;;2.05;;
31526;SDS011;18136;42.236;-73.040;2022-08-01T05:44:10;2.85;;;2.13;;
31526;SDS011;18136;42.236;-73.040;2022-08-01T05:46:36;6.93;;;2.25;;
31526;SDS011;18136;42.236;-73.040;2022-08-01T05:49:02;2.17;;;1.95;;
31526;SDS011;18136;42.236;-73.040;2022-08-01T05:51:30;6.15;;;2.20;;
31526;SDS011;18136;42.236;-73.040;2022-08-01T05:53:56;3.05;;;2.17;;
31526;SDS011;18136;42.236;-73.040;2022-08-01T05:56:23;3.85;;;2.10;;
31526;SDS011;18136;42.236;-73.040;2022-08-01T05:58:49;4.13;;;2.50;;
31526;SDS011;18136;42.236;-73.040;2022-08-01T06:01:16;4.40;;;1.90;;
31526;SDS011;18136;42.236;-73.040;2022-08-01T06:03:43;3.10;;;1.90;;
31526;SDS011;18136;42.236;-73.040;2022-08-01T06:06:09;1.90;;;1.80;;
31526;SDS011;18136;42.236;-73.040;2022-08-01T06:08:35;3.95;;;2.10;;
31526;SDS011;18136;42.236;-73.040;2022-08-01T06:11:01;2.08;;;1.83;;
31526;SDS011;18136;42.236;-73.040;2022-08-01T06:13:27;5.47;;;2.20;;
31526;SDS011;18136;42.236;-73.040;2022-08-01T06:15:53;1.88;;;1.63;;
31526;SDS011;18136;42.236;-73.040;2022-08-01T06:18:20;3.45;;;2.00;;
31526;SDS011;18136;42.236;-73.040;2022-08-01T06:20:46;2.25;;;1.90;;
31526;SDS011;18136;42.236;-73.040;2022-08-01T06:23:12;3.15;;;1.90;;
31526;SDS011;18136;42.236;-73.040;2022-08-01T06:25:41;3.60;;;2.08;;
31526;SDS011;18136;42.236;-73.040;2022-08-01T06:28:08;4.13;;;2.15;;
31526;SDS011;18136;42.236;-73.040;2022-08-01T06:30:34;2.42;;;2.17;;
31526;SDS011;18136;42.236;-73.040;2022-08-01T06:33:00;7.03;;;2.65;;
31526;SDS011;18136;42.236;-73.040;2022-08-01T06:35:28;3.90;;;2.15;;
31526;SDS011;18136;42.236;-73.040;2022-08-01T06:37:55;2.35;;;2.15;;
31526;SDS011;18136;42.236;-73.040;2022-08-01T06:40:22;3.10;;;2.25;;
31526;SDS011;18136;42.236;-73.040;2022-08-01T06:42:48;2.15;;;1.95;;
31526;SDS011;18136;42.236;-73.040;2022-08-01T06:45:15;2.60;;;2.17;;
31526;SDS011;18136;42.236;-73.040;2022-08-01T06:47:42;3.40;;;2.20;;
31526;SDS011;18136;42.236;-73.040;2022-08-01T06:50:10;3.03;;;1.92;;
31526;SDS011;18136;42.236;-73.040;2022-08-01T06:52:37;2.70;;;2.17;;
31526;SDS011;18136;42.236;-73.040;2022-08-01T06:55:03;2.10;;;1.90;;
31526;SDS011;18136;42.236;-73.040;2022-08-01T06:57:29;2.97;;;2.10;;
31526;SDS011;18136;42.236;-73.040;2022-08-01T06:59:56;2.33;;;2.13;;
31526;SDS011;18136;42.236;-73.040;2022-08-01T07:02:22;3.08;;;2.78;;
31526;SDS011;18136;42.236;-73.040;2022-08-01T07:04:48;6.47;;;2.25;;
31526;SDS011;18136;42.236;-73.040;2022-08-01T07:07:14;3.80;;;1.98;;
31526;SDS011;18136;42.236;-73.040;2022-08-01T07:09:41;3.33;;;2.38;;
31526;SDS011;18136;42.236;-73.040;2022-08-01T07:12:07;3.17;;;2.25;;
31526;SDS011;18136;42.236;-73.040;2022-08-01T07:14:33;2.25;;;2.05;;
31526;SDS011;18136;42.236;-73.040;2022-08-01T07:17:00;6.22;;;2.53;;
31526;SDS011;18136;42.236;-73.040;2022-08-01T07:19:26;4.20;;;2.28;;
31526;SDS011;18136;42.236;-73.040;2022-08-01T07:21:52;2.35;;;2.15;;
31526;SDS011;18136;42.236;-73.040;2022-08-01T07:24:19;6.38;;;3.13;;
31526;SDS011;18136;42.236;-73.040;2022-08-01T07:26:46;3.75;;;2.90;;
31526;SDS011;18136;42.236;-73.040;2022-08-01T07:29:13;4.90;;;2.60;;
31526;SDS011;18136;42.236;-73.040;2022-08-01T07:31:40;4.38;;;3.10;;
31526;SDS011;18136;42.236;-73.040;2022-08-01T07:34:06;3.33;;;2.33;;
31526;SDS011;18136;42.236;-73.040;2022-08-01T07:36:32;4.90;;;2.63;;
31526;SDS011;18136;42.236;-73.040;2022-08-01T07:38:58;4.35;;;2.50;;
31526;SDS011;18136;42.236;-73.040;2022-08-01T07:41:34;2.78;;;2.55;;
31526;SDS011;18136;42.236;-73.040;2022-08-01T07:46:26;7.07;;;2.90;;
31526;SDS011;18136;42.236;-73.040;2022-08-01T07:48:52;5.15;;;2.90;;
31526;SDS011;18136;42.236;-73.040;2022-08-01T07:51:18;5.47;;;3.15;;
31526;SDS011;18136;42.236;-73.040;2022-08-01T07:53:44;4.53;;;3.30;;
31526;SDS011;18136;42.236;-73.040;2022-08-01T07:56:10;5.78;;;3.50;;
31526;SDS011;18136;42.236;-73.040;2022-08-01T07:58:36;3.47;;;2.63;;
31526;SDS011;18136;42.236;-73.040;2022-08-01T08:01:02;4.72;;;2.80;;
31526;SDS011;18136;42.236;-73.040;2022-08-01T08:03:29;4.30;;;3.00;;
31526;SDS011;18136;42.236;-73.040;2022-08-01T08:05:55;5.43;;;3.00;;
31526;SDS011;18136;42.236;-73.040;2022-08-01T08:08:21;7.10;;;3.13;;
31526;SDS011;18136;42.236;-73.040;2022-08-01T08:10:49;6.38;;;3.50;;
31526;SDS011;18136;42.236;-73.040;2022-08-01T08:13:15;3.50;;;3.20;;
31526;SDS011;18136;42.236;-73.040;2022-08-01T08:15:41;4.97;;;3.40;;
31526;SDS011;18136;42.236;-73.040;2022-08-01T08:18:08;3.20;;;2.90;;
31526;SDS011;18136;42.236;-73.040;2022-08-01T08:20:34;6.32;;;3.25;;
31526;SDS011;18136;42.236;-73.040;2022-08-01T08:23:00;3.53;;;3.22;;
31526;SDS011;18136;42.236;-73.040;2022-08-01T08:28:12;6.18;;;2.80;;
31526;SDS011;18136;42.236;-73.040;2022-08-01T08:30:38;5.90;;;3.58;;
31526;SDS011;18136;42.236;-73.040;2022-08-01T08:33:04;3.55;;;3.30;;
31526;SDS011;18136;42.236;-73.040;2022-08-01T08:35:30;4.57;;;3.33;;
31526;SDS011;18136;42.236;-73.040;2022-08-01T08:37:57;5.70;;;3.50;;
31526;SDS011;18136;42.236;-73.040;2022-08-01T08:40:23;5.03;;;3.05;;
31526;SDS011;18136;42.236;-73.040;2022-08-01T08:42:55;5.30;;;3.08;;
31526;SDS011;18136;42.236;-73.040;2022-08-01T08:45:25;6.28;;;3.90;;
31526;SDS011;18136;42.236;-73.040;2022-08-01T08:47:52;3.83;;;3.38;;
31526;SDS011;18136;42.236;-73.040;2022-08-01T08:50:20;4.22;;;3.05;;
31526;SDS011;18136;42.236;-73.040;2022-08-01T08:52:46;3.83;;;3.30;;
31526;SDS011;18136;42.236;-73.040;2022-08-01T08:55:13;4.32;;;3.60;;
31526;SDS011;18136;42.236;-73.040;2022-08-01T08:57:43;4.25;;;3.67;;
31526;SDS011;18136;42.236;-73.040;2022-08-01T09:00:10;5.82;;;3.60;;
31526;SDS011;18136;42.236;-73.040;2022-08-01T09:02:41;4.57;;;3.88;;
31526;SDS011;18136;42.236;-73.040;2022-08-01T09:05:09;4.10;;;3.70;;
31526;SDS011;18136;42.236;-73.040;2022-08-01T09:07:36;3.50;;;3.20;;
31526;SDS011;18136;42.236;-73.040;2022-08-01T09:10:05;4.03;;;3.72;;
31526;SDS011;18136;42.236;-73.040;2022-08-01T09:12:32;4.57;;;3.40;;
31526;SDS011;18136;42.236;-73.040;2022-08-01T09:14:58;4.18;;;3.72;;
31526;SDS011;18136;42.236;-73.040;2022-08-01T09:17:24;4.45;;;3.80;;
31526;SDS011;18136;42.236;-73.040;2022-08-01T09:19:51;4.18;;;3.78;;
31526;SDS011;18136;42.236;-73.040;2022-08-01T09:22:20;4.07;;;3.67;;
31526;SDS011;18136;42.236;-73.040;2022-08-01T09:25:01;5.07;;;3.70;;
31526;SDS011;18136;42.236;-73.040;2022-08-01T09:27:32;4.97;;;4.15;;
31526;SDS011;18136;42.236;-73.040;2022-08-01T09:30:12;4.75;;;3.88;;
31526;SDS011;18136;42.236;-73.040;2022-08-01T09:32:53;10.52;;;4.75;;
31526;SDS011;18136;42.236;-73.040;2022-08-01T09:35:24;4.97;;;4.00;;
31526;SDS011;18136;42.236;-73.040;2022-08-01T09:40:50;6.22;;;3.72;;
31526;SDS011;18136;42.236;-73.040;2022-08-01T09:43:28;5.30;;;4.25;;
31526;SDS011;18136;42.236;-73.040;2022-08-01T09:45:55;4.50;;;4.10;;
31526;SDS011;18136;42.236;-73.040;2022-08-01T09:48:22;4.97;;;3.72;;
31526;SDS011;18136;42.236;-73.040;2022-08-01T09:50:49;4.82;;;3.75;;
31526;SDS011;18136;42.236;-73.040;2022-08-01T09:53:17;4.90;;;4.50;;
31526;SDS011;18136;42.236;-73.040;2022-08-01T09:55:43;4.75;;;4.25;;
31526;SDS011;18136;42.236;-73.040;2022-08-01T09:58:10;4.40;;;3.97;;
31526;SDS011;18136;42.236;-73.040;2022-08-01T10:00:37;4.57;;;4.15;;
31526;SDS011;18136;42.236;-73.040;2022-08-01T10:03:20;5.20;;;4.03;;
31526;SDS011;18136;42.236;-73.040;2022-08-01T10:05:49;4.25;;;3.85;;
31526;SDS011;18136;42.236;-73.040;2022-08-01T10:08:16;4.32;;;3.92;;
31526;SDS011;18136;42.236;-73.040;2022-08-01T10:13:34;4.30;;;3.92;;
31526;SDS011;18136;42.236;-73.040;2022-08-01T10:16:00;4.28;;;3.88;;
31526;SDS011;18136;42.236;-73.040;2022-08-01T10:18:31;5.47;;;4.13;;
31526;SDS011;18136;42.236;-73.040;2022-08-01T10:21:00;4.38;;;3.78;;
31526;SDS011;18136;42.236;-73.040;2022-08-01T10:23:27;5.55;;;3.47;;
31526;SDS011;18136;42.236;-73.040;2022-08-01T10:26:00;3.30;;;3.03;;
31526;SDS011;18136;42.236;-73.040;2022-08-01T10:28:26;5.65;;;3.60;;
31526;SDS011;18136;42.236;-73.040;2022-08-01T10:30:57;3.95;;;3.60;;
31526;SDS011;18136;42.236;-73.040;2022-08-01T10:33:23;3.33;;;2.95;;
31526;SDS011;18136;42.236;-73.040;2022-08-01T10:35:53;4.38;;;3.40;;
31526;SDS011;18136;42.236;-73.040;2022-08-01T10:38:20;5.72;;;3.95;;
31526;SDS011;18136;42.236;-73.040;2022-08-01T10:40:48;3.60;;;3.30;;
31526;SDS011;18136;42.236;-73.040;2022-08-01T10:43:16;4.00;;;3.55;;
31526;SDS011;18136;42.236;-73.040;2022-08-01T10:45:42;8.38;;;4.03;;
31526;SDS011;18136;42.236;-73.040;2022-08-01T10:48:12;4.25;;;3.55;;
31526;SDS011;18136;42.236;-73.040;2022-08-01T10:50:47;4.03;;;3.63;;
31526;SDS011;18136;42.236;-73.040;2022-08-01T10:53:20;3.67;;;3.30;;
31526;SDS011;18136;42.236;-73.040;2022-08-01T11:03:41;5.13;;;4.05;;
31526;SDS011;18136;42.236;-73.040;2022-08-01T11:06:15;4.97;;;3.70;;
31526;SDS011;18136;42.236;-73.040;2022-08-01T11:08:42;4.25;;;3.92;;
31526;SDS011;18136;42.236;-73.040;2022-08-01T11:11:17;5.57;;;4.10;;
31526;SDS011;18136;42.236;-73.040;2022-08-01T11:14:05;4.05;;;3.63;;
31526;SDS011;18136;42.236;-73.040;2022-08-01T11:16:37;4.45;;;3.83;;
31526;SDS011;18136;42.236;-73.040;2022-08-01T11:19:05;4.13;;;3.83;;
31526;SDS011;18136;42.236;-73.040;2022-08-01T11:27:20;4.38;;;3.83;;
31526;SDS011;18136;42.236;-73.040;2022-08-01T11:35:31;3.85;;;3.45;;
31526;SDS011;18136;42.236;-73.040;2022-08-01T11:38:22;7.85;;;3.83;;
31526;SDS011;18136;42.236;-73.040;2022-08-01T11:40:47;3.40;;;3.10;;
31526;SDS011;18136;42.236;-73.040;2022-08-01T11:43:55;5.15;;;3.20;;
31526;SDS011;18136;42.236;-73.040;2022-08-01T11:52:00;3.72;;;2.58;;
31526;SDS011;18136;42.236;-73.040;2022-08-01T11:54:51;3.05;;;2.75;;
31526;SDS011;18136;42.236;-73.040;2022-08-01T11:57:26;3.45;;;3.13;;
31526;SDS011;18136;42.236;-73.040;2022-08-01T11:59:59;2.83;;;2.50;;
31526;SDS011;18136;42.236;-73.040;2022-08-01T12:02:29;4.28;;;3.13;;
31526;SDS011;18136;42.236;-73.040;2022-08-01T12:05:01;3.58;;;3.30;;
31526;SDS011;18136;42.236;-73.040;2022-08-01T12:07:28;4.20;;;3.80;;
31526;SDS011;18136;42.236;-73.040;2022-08-01T12:10:12;4.32;;;3.92;;
31526;SDS011;18136;42.236;-73.040;2022-08-01T12:12:44;3.80;;;3.50;;
31526;SDS011;18136;42.236;-73.040;2022-08-01T12:15:10;4.80;;;3.65;;
31526;SDS011;18136;42.236;-73.040;2022-08-01T12:17:38;3.90;;;3.60;;
31526;SDS011;18136;42.236;-73.040;2022-08-01T12:20:07;7.18;;;3.78;;
31526;SDS011;18136;42.236;-73.040;2022-08-01T12:22:38;4.32;;;3.92;;
31526;SDS011;18136;42.236;-73.040;2022-08-01T12:25:11;3.38;;;3.08;;
31526;SDS011;18136;42.236;-73.040;2022-08-01T12:27:39;3.92;;;3.53;;
31526;SDS011;18136;42.236;-73.040;2022-08-01T12:30:07;3.60;;;3.00;;
31526;SDS011;18136;42.236;-73.040;2022-08-01T12:32:36;4.97;;;3.50;;
31526;SDS011;18136;42.236;-73.040;2022-08-01T12:38:04;5.78;;;4.03;;
31526;SDS011;18136;42.236;-73.040;2022-08-01T12:40:33;4.15;;;3.65;;
31526;SDS011;18136;42.236;-73.040;2022-08-01T12:43:05;3.80;;;3.45;;
31526;SDS011;18136;42.236;-73.040;2022-08-01T12:45:33;3.92;;;3.28;;
31526;SDS011;18136;42.236;-73.040;2022-08-01T12:48:10;4.95;;;3.40;;
31526;SDS011;18136;42.236;-73.040;2022-08-01T12:50:38;5.30;;;3.35;;
31526;SDS011;18136;42.236;-73.040;2022-08-01T12:53:07;3.25;;;3.05;;
31526;SDS011;18136;42.236;-73.040;2022-08-01T12:55:43;4.47;;;3.22;;
31526;SDS011;18136;42.236;-73.040;2022-08-01T12:58:12;3.55;;;3.25;;
31526;SDS011;18136;42.236;-73.040;2022-08-01T13:00:40;3.20;;;2.90;;
31526;SDS011;18136;42.236;-73.040;2022-08-01T13:05:54;2.80;;;2.60;;
31526;SDS011;18136;42.236;-73.040;2022-08-01T13:08:29;5.22;;;3.05;;
31526;SDS011;18136;42.236;-73.040;2022-08-01T13:11:08;5.43;;;2.72;;
31526;SDS011;18136;42.236;-73.040;2022-08-01T13:13:42;3.92;;;2.47;;
31526;SDS011;18136;42.236;-73.040;2022-08-01T13:16:21;4.18;;;2.55;;
31526;SDS011;18136;42.236;-73.040;2022-08-01T13:18:50;2.22;;;2.03;;
31526;SDS011;18136;42.236;-73.040;2022-08-01T13:24:00;2.45;;;2.20;;
31526;SDS011;18136;42.236;-73.040;2022-08-01T13:26:45;5.97;;;2.50;;
31526;SDS011;18136;42.236;-73.040;2022-08-01T13:29:17;2.45;;;2.10;;
31526;SDS011;18136;42.236;-73.040;2022-08-01T13:31:45;2.42;;;2.22;;
31526;SDS011;18136;42.236;-73.040;2022-08-01T13:34:12;3.08;;;2.10;;
31526;SDS011;18136;42.236;-73.040;2022-08-01T13:36:39;2.47;;;2.28;;
31526;SDS011;18136;42.236;-73.040;2022-08-01T13:39:06;1.80;;;1.70;;
31526;SDS011;18136;42.236;-73.040;2022-08-01T13:41:51;2.83;;;2.63;;
31526;SDS011;18136;42.236;-73.040;2022-08-01T13:44:17;2.85;;;1.75;;
31526;SDS011;18136;42.236;-73.040;2022-08-01T13:46:44;1.73;;;1.63;;
31526;SDS011;18136;42.236;-73.040;2022-08-01T13:49:12;1.92;;;1.83;;
31526;SDS011;18136;42.236;-73.040;2022-08-01T13:51:39;5.25;;;2.20;;
31526;SDS011;18136;42.236;-73.040;2022-08-01T13:54:05;1.67;;;1.58;;
31526;SDS011;18136;42.236;-73.040;2022-08-01T13:56:32;2.83;;;1.70;;
31526;SDS011;18136;42.236;-73.040;2022-08-01T13:58:58;1.73;;;1.60;;
31526;SDS011;18136;42.236;-73.040;2022-08-01T14:01:24;1.90;;;1.80;;
31526;SDS011;18136;42.236;-73.040;2022-08-01T14:03:51;1.77;;;1.67;;
31526;SDS011;18136;42.236;-73.040;2022-08-01T14:06:18;1.95;;;1.77;;
31526;SDS011;18136;42.236;-73.040;2022-08-01T14:08:46;1.67;;;1.27;;
31526;SDS011;18136;42.236;-73.040;2022-08-01T14:11:12;2.05;;;1.50;;
31526;SDS011;18136;42.236;-73.040;2022-08-01T14:13:39;2.65;;;1.52;;
31526;SDS011;18136;42.236;-73.040;2022-08-01T14:16:06;2.55;;;1.55;;
31526;SDS011;18136;42.236;-73.040;2022-08-01T14:18:32;1.73;;;1.50;;
31526;SDS011;18136;42.236;-73.040;2022-08-01T14:20:58;2.40;;;1.50;;
31526;SDS011;18136;42.236;-73.040;2022-08-01T14:23:25;1.42;;;1.30;;
31526;SDS011;18136;42.236;-73.040;2022-08-01T14:25:51;2.83;;;1.98;;
31526;SDS011;18136;42.236;-73.040;2022-08-01T14:28:17;2.47;;;1.50;;
31526;SDS011;18136;42.236;-73.040;2022-08-01T14:30:44;2.20;;;1.48;;
31526;SDS011;18136;42.236;-73.040;2022-08-01T14:33:11;1.60;;;1.50;;
31526;SDS011;18136;42.236;-73.040;2022-08-01T14:35:38;2.92;;;1.30;;
31526;SDS011;18136;42.236;-73.040;2022-08-01T14:38:04;2.42;;;1.58;;
31526;SDS011;18136;42.236;-73.040;2022-08-01T14:40:30;2.22;;;1.30;;
31526;SDS011;18136;42.236;-73.040;2022-08-01T14:42:57;1.98;;;1.30;;
31526;SDS011;18136;42.236;-73.040;2022-08-01T14:45:23;2.30;;;1.42;;
31526;SDS011;18136;42.236;-73.040;2022-08-01T14:47:49;1.88;;;1.48;;
31526;SDS011;18136;42.236;-73.040;2022-08-01T14:50:15;5.15;;;1.88;;
31526;SDS011;18136;42.236;-73.040;2022-08-01T14:52:42;7.18;;;1.60;;
31526;SDS011;18136;42.236;-73.040;2022-08-01T14:55:09;1.35;;;1.25;;
31526;SDS011;18136;42.236;-73.040;2022-08-01T14:57:36;4.03;;;1.38;;
31526;SDS011;18136;42.236;-73.040;2022-08-01T15:00:04;1.30;;;1.20;;
31526;SDS011;18136;42.236;-73.040;2022-08-01T15:02:38;1.55;;;1.45;;
31526;SDS011;18136;42.236;-73.040;2022-08-01T15:05:04;1.35;;;1.25;;
31526;SDS011;18136;42.236;-73.040;2022-08-01T15:07:31;1.63;;;1.30;;
31526;SDS011;18136;42.236;-73.040;2022-08-01T15:09:57;1.60;;;1.38;;
31526;SDS011;18136;42.236;-73.040;2022-08-01T15:12:23;3.53;;;1.40;;
31526;SDS011;18136;42.236;-73.040;2022-08-01T15:14:50;2.42;;;1.23;;
31526;SDS011;18136;42.236;-73.040;2022-08-01T15:17:20;1.15;;;1.05;;
31526;SDS011;18136;42.236;-73.040;2022-08-01T15:19:50;1.00;;;1.00;;
31526;SDS011;18136;42.236;-73.040;2022-08-01T15:22:18;1.48;;;1.17;;
31526;SDS011;18136;42.236;-73.040;2022-08-01T15:24:48;2.92;;;1.17;;
31526;SDS011;18136;42.236;-73.040;2022-08-01T15:27:16;1.75;;;1.33;;